sensor_id;sensor_type;location;lat;lon;timestamp;noise_LAeq;noise_LA_min;noise_LA_max;noise_LA01;noise_LA95
60031;Laerm;45901;47.600;9.890;2023-08-21T00:01:41;40.10;37.12;49.33;;
60031;Laerm;45901;47.600;9.890;2023-08-21T00:04:08;39.53;37.32;41.46;;
60031;Laerm;45901;47.600;9.890;2023-08-21T00:06:35;39.68;36.91;42.76;;
60031;Laerm;45901;47.600;9.890;2023-08-21T00:09:02;39.56;37.12;41.53;;
60031;Laerm;45901;47.600;9.890;2023-08-21T00:11:29;39.54;35.94;41.46;;
60031;Laerm;45901;47.600;9.890;2023-08-21T00:13:58;39.58;37.32;41.41;;
60031;Laerm;45901;47.600;9.890;2023-08-21T00:16:25;39.63;36.91;47.58;;
60031;Laerm;45901;47.600;9.890;2023-08-21T00:18:54;39.56;36.91;41.61;;
60031;Laerm;45901;47.600;9.890;2023-08-21T00:21:21;39.57;36.69;41.53;;
60031;Laerm;45901;47.600;9.890;2023-08-21T00:23:48;39.49;37.12;41.22;;
60031;Laerm;45901;47.600;9.890;2023-08-21T00:26:15;39.51;36.91;41.82;;
60031;Laerm;45901;47.600;9.890;2023-08-21T00:28:42;39.52;36.91;41.68;;
60031;Laerm;45901;47.600;9.890;2023-08-21T00:31:10;39.76;36.91;48.42;;
60031;Laerm;45901;47.600;9.890;2023-08-21T00:33:38;39.55;37.12;41.89;;
60031;Laerm;45901;47.600;9.890;2023-08-21T00:36:05;39.52;36.91;41.61;;
60031;Laerm;45901;47.600;9.890;2023-08-21T00:38:32;39.53;36.45;41.26;;
60031;Laerm;45901;47.600;9.890;2023-08-21T00:40:59;39.72;36.91;42.09;;
60031;Laerm;45901;47.600;9.890;2023-08-21T00:43:26;39.55;36.69;41.53;;
60031;Laerm;45901;47.600;9.890;2023-08-21T00:45:53;39.72;37.12;48.21;;
60031;Laerm;45901;47.600;9.890;2023-08-21T00:48:21;39.54;36.91;41.38;;
60031;Laerm;45901;47.600;9.890;2023-08-21T00:50:48;39.55;36.20;41.38;;
60031;Laerm;45901;47.600;9.890;2023-08-21T00:53:16;39.52;37.12;41.38;;
60031;Laerm;45901;47.600;9.890;2023-08-21T00:55:43;39.53;37.12;41.53;;
60031;Laerm;45901;47.600;9.890;2023-08-21T00:58:11;39.56;36.91;41.46;;
60031;Laerm;45901;47.600;9.890;2023-08-21T01:00:39;40.33;37.12;48.74;;
60031;Laerm;45901;47.600;9.890;2023-08-21T01:03:07;39.72;36.91;43.86;;
60031;Laerm;45901;47.600;9.890;2023-08-21T01:05:36;39.52;36.69;41.61;;
60031;Laerm;45901;47.600;9.890;2023-08-21T01:08:08;39.52;36.91;41.30;;
60031;Laerm;45901;47.600;9.890;2023-08-21T01:10:47;39.64;36.91;42.71;;
60031;Laerm;45901;47.600;9.890;2023-08-21T01:13:30;39.54;36.45;41.48;;
60031;Laerm;45901;47.600;9.890;2023-08-21T01:16:01;39.65;36.69;47.77;;
60031;Laerm;45901;47.600;9.890;2023-08-21T01:18:30;39.56;36.91;41.38;;
60031;Laerm;45901;47.600;9.890;2023-08-21T01:21:02;39.53;36.91;41.61;;
60031;Laerm;45901;47.600;9.890;2023-08-21T01:23:35;39.53;36.45;41.53;;
60031;Laerm;45901;47.600;9.890;2023-08-21T01:26:03;39.52;36.91;41.82;;
60031;Laerm;45901;47.600;9.890;2023-08-21T01:28:31;39.55;36.91;41.53;;
60031;Laerm;45901;47.600;9.890;2023-08-21T01:31:05;39.65;36.91;47.50;;
60031;Laerm;45901;47.600;9.890;2023-08-21T01:33:44;39.56;36.20;41.38;;
60031;Laerm;45901;47.600;9.890;2023-08-21T01:36:11;39.56;36.69;41.46;;
60031;Laerm;45901;47.600;9.890;2023-08-21T01:38:40;39.55;37.32;41.61;;
60031;Laerm;45901;47.600;9.890;2023-08-21T01:41:08;39.56;36.69;41.75;;
60031;Laerm;45901;47.600;9.890;2023-08-21T01:43:35;39.56;37.17;41.68;;
60031;Laerm;45901;47.600;9.890;2023-08-21T01:46:02;39.72;36.45;49.20;;
60031;Laerm;45901;47.600;9.890;2023-08-21T01:48:29;39.71;37.32;42.22;;
60031;Laerm;45901;47.600;9.890;2023-08-21T01:50:56;39.55;36.69;41.46;;
60031;Laerm;45901;47.600;9.890;2023-08-21T01:53:23;39.54;36.20;41.68;;
60031;Laerm;45901;47.600;9.890;2023-08-21T01:55:52;39.57;36.69;41.61;;
60031;Laerm;45901;47.600;9.890;2023-08-21T01:58:19;39.53;36.91;41.89;;
60031;Laerm;45901;47.600;9.890;2023-08-21T02:00:46;40.07;36.91;48.87;;
60031;Laerm;45901;47.600;9.890;2023-08-21T02:03:13;39.57;36.91;41.61;;
60031;Laerm;45901;47.600;9.890;2023-08-21T02:05:41;39.55;37.12;41.33;;
60031;Laerm;45901;47.600;9.890;2023-08-21T02:08:12;39.55;36.91;41.53;;
60031;Laerm;45901;47.600;9.890;2023-08-21T02:10:48;39.55;37.12;41.68;;
60031;Laerm;45901;47.600;9.890;2023-08-21T02:13:17;39.55;36.91;41.38;;
60031;Laerm;45901;47.600;9.890;2023-08-21T02:15:45;39.68;37.32;43.05;;
60031;Laerm;45901;47.600;9.890;2023-08-21T02:18:12;39.61;36.69;48.16;;
60031;Laerm;45901;47.600;9.890;2023-08-21T02:20:39;39.56;36.45;41.46;;
60031;Laerm;45901;47.600;9.890;2023-08-21T02:23:06;39.71;35.66;43.54;;
60031;Laerm;45901;47.600;9.890;2023-08-21T02:25:33;39.72;37.12;45.17;;
60031;Laerm;45901;47.600;9.890;2023-08-21T02:28:00;39.55;36.45;41.38;;
60031;Laerm;45901;47.600;9.890;2023-08-21T02:30:31;39.68;37.12;47.42;;
60031;Laerm;45901;47.600;9.890;2023-08-21T02:32:58;39.59;36.45;41.48;;
60031;Laerm;45901;47.600;9.890;2023-08-21T02:35:25;39.57;36.69;41.38;;
60031;Laerm;45901;47.600;9.890;2023-08-21T02:37:52;39.64;37.12;41.53;;
60031;Laerm;45901;47.600;9.890;2023-08-21T02:40:19;39.59;36.91;41.68;;
60031;Laerm;45901;47.600;9.890;2023-08-21T02:42:46;39.57;37.12;41.46;;
60031;Laerm;45901;47.600;9.890;2023-08-21T02:45:13;39.92;36.91;47.26;;
60031;Laerm;45901;47.600;9.890;2023-08-21T02:47:41;40.08;37.12;47.67;;
60031;Laerm;45901;47.600;9.890;2023-08-21T02:50:10;39.57;37.12;42.03;;
60031;Laerm;45901;47.600;9.890;2023-08-21T02:52:37;39.53;37.12;41.68;;
60031;Laerm;45901;47.600;9.890;2023-08-21T02:55:05;39.58;36.91;41.53;;
60031;Laerm;45901;47.600;9.890;2023-08-21T02:57:33;39.83;36.91;42.65;;
60031;Laerm;45901;47.600;9.890;2023-08-21T03:00:00;39.64;37.12;41.61;;
60031;Laerm;45901;47.600;9.890;2023-08-21T03:02:27;40.19;36.69;47.72;;
60031;Laerm;45901;47.600;9.890;2023-08-21T03:04:58;39.82;37.12;43.24;;
60031;Laerm;45901;47.600;9.890;2023-08-21T03:07:25;39.83;36.91;42.09;;
60031;Laerm;45901;47.600;9.890;2023-08-21T03:09:52;40.30;37.52;42.93;;
60031;Laerm;45901;47.600;9.890;2023-08-21T03:12:19;40.16;37.12;46.97;;
60031;Laerm;45901;47.600;9.890;2023-08-21T03:14:46;39.65;36.45;42.09;;
60031;Laerm;45901;47.600;9.890;2023-08-21T03:17:13;39.78;36.69;48.73;;
60031;Laerm;45901;47.600;9.890;2023-08-21T03:19:40;39.60;37.12;41.68;;
60031;Laerm;45901;47.600;9.890;2023-08-21T03:22:08;39.59;36.91;41.75;;
60031;Laerm;45901;47.600;9.890;2023-08-21T03:24:35;39.64;36.91;41.82;;
60031;Laerm;45901;47.600;9.890;2023-08-21T03:27:03;39.58;36.45;41.68;;
60031;Laerm;45901;47.600;9.890;2023-08-21T03:29:30;39.82;36.91;43.77;;
60031;Laerm;45901;47.600;9.890;2023-08-21T03:31:58;39.85;37.32;47.88;;
60031;Laerm;45901;47.600;9.890;2023-08-21T03:34:25;39.78;36.91;44.87;;
60031;Laerm;45901;47.600;9.890;2023-08-21T03:36:52;39.95;36.91;43.04;;
60031;Laerm;45901;47.600;9.890;2023-08-21T03:39:20;39.82;36.98;48.63;;
60031;Laerm;45901;47.600;9.890;2023-08-21T03:41:47;39.81;36.91;42.09;;
60031;Laerm;45901;47.600;9.890;2023-08-21T03:44:14;39.76;36.69;43.14;;
60031;Laerm;45901;47.600;9.890;2023-08-21T03:46:41;40.21;37.12;47.22;;
60031;Laerm;45901;47.600;9.890;2023-08-21T03:49:08;40.11;36.91;44.23;;
60031;Laerm;45901;47.600;9.890;2023-08-21T03:51:35;40.01;37.12;45.39;;
60031;Laerm;45901;47.600;9.890;2023-08-21T03:54:02;39.71;37.12;41.68;;
60031;Laerm;45901;47.600;9.890;2023-08-21T03:56:30;39.98;37.32;42.59;;
60031;Laerm;45901;47.600;9.890;2023-08-21T03:58:57;39.87;37.12;43.34;;
60031;Laerm;45901;47.600;9.890;2023-08-21T04:01:24;40.58;36.91;47.88;;
60031;Laerm;45901;47.600;9.890;2023-08-21T04:03:51;40.46;37.52;46.33;;
60031;Laerm;45901;47.600;9.890;2023-08-21T04:06:18;39.86;37.32;43.63;;
60031;Laerm;45901;47.600;9.890;2023-08-21T04:08:45;40.22;36.69;47.63;;
60031;Laerm;45901;47.600;9.890;2023-08-21T04:11:12;39.69;36.77;42.41;;
60031;Laerm;45901;47.600;9.890;2023-08-21T04:13:41;39.84;37.12;42.35;;
60031;Laerm;45901;47.600;9.890;2023-08-21T04:16:08;39.83;37.32;47.02;;
60031;Laerm;45901;47.600;9.890;2023-08-21T04:18:36;40.09;37.32;43.04;;
60031;Laerm;45901;47.600;9.890;2023-08-21T04:21:04;39.93;36.45;43.54;;
60031;Laerm;45901;47.600;9.890;2023-08-21T04:23:32;40.00;37.32;43.54;;
60031;Laerm;45901;47.600;9.890;2023-08-21T04:26:00;39.69;37.32;41.96;;
60031;Laerm;45901;47.600;9.890;2023-08-21T04:28:29;39.76;37.32;42.65;;
60031;Laerm;45901;47.600;9.890;2023-08-21T04:30:58;39.90;36.91;46.73;;
60031;Laerm;45901;47.600;9.890;2023-08-21T04:33:25;39.91;36.69;43.39;;
60031;Laerm;45901;47.600;9.890;2023-08-21T04:35:53;39.83;36.91;41.89;;
60031;Laerm;45901;47.600;9.890;2023-08-21T04:38:20;39.76;36.45;42.03;;
60031;Laerm;45901;47.600;9.890;2023-08-21T04:40:47;39.82;37.32;43.29;;
60031;Laerm;45901;47.600;9.890;2023-08-21T04:43:14;42.16;37.52;59.90;;
60031;Laerm;45901;47.600;9.890;2023-08-21T04:45:47;40.44;37.32;47.98;;
60031;Laerm;45901;47.600;9.890;2023-08-21T04:48:17;40.62;37.52;54.27;;
60031;Laerm;45901;47.600;9.890;2023-08-21T04:50:43;40.02;37.70;41.88;;
60031;Laerm;45901;47.600;9.890;2023-08-21T04:53:10;40.14;36.91;47.12;;
60031;Laerm;45901;47.600;9.890;2023-08-21T04:55:38;39.89;37.12;42.09;;
60031;Laerm;45901;47.600;9.890;2023-08-21T04:58:07;40.21;37.70;47.14;;
60031;Laerm;45901;47.600;9.890;2023-08-21T05:00:34;41.48;38.37;50.48;;
60031;Laerm;45901;47.600;9.890;2023-08-21T05:03:01;41.68;38.67;48.28;;
60031;Laerm;45901;47.600;9.890;2023-08-21T05:05:30;41.05;38.18;44.69;;
60031;Laerm;45901;47.600;9.890;2023-08-21T05:07:57;40.43;37.52;44.16;;
60031;Laerm;45901;47.600;9.890;2023-08-21T05:10:24;40.17;37.52;44.80;;
60031;Laerm;45901;47.600;9.890;2023-08-21T05:12:51;40.34;37.12;42.88;;
60031;Laerm;45901;47.600;9.890;2023-08-21T05:15:17;40.13;37.70;42.82;;
60031;Laerm;45901;47.600;9.890;2023-08-21T05:17:44;40.50;37.52;48.20;;
60031;Laerm;45901;47.600;9.890;2023-08-21T05:20:11;40.59;37.70;43.99;;
60031;Laerm;45901;47.600;9.890;2023-08-21T05:22:41;40.67;37.32;45.60;;
60031;Laerm;45901;47.600;9.890;2023-08-21T05:25:10;40.50;37.52;44.97;;
60031;Laerm;45901;47.600;9.890;2023-08-21T05:27:37;42.09;38.21;47.95;;
60031;Laerm;45901;47.600;9.890;2023-08-21T05:30:05;40.43;37.70;45.94;;
60031;Laerm;45901;47.600;9.890;2023-08-21T05:32:32;40.55;37.88;48.12;;
60031;Laerm;45901;47.600;9.890;2023-08-21T05:34:59;40.43;37.70;45.30;;
60031;Laerm;45901;47.600;9.890;2023-08-21T05:37:27;40.81;37.52;52.68;;
60031;Laerm;45901;47.600;9.890;2023-08-21T05:39:55;40.44;37.88;47.20;;
60031;Laerm;45901;47.600;9.890;2023-08-21T05:42:22;42.52;37.52;61.16;;
60031;Laerm;45901;47.600;9.890;2023-08-21T05:44:49;40.19;37.52;44.43;;
60031;Laerm;45901;47.600;9.890;2023-08-21T05:47:16;40.60;36.91;49.51;;
60031;Laerm;45901;47.600;9.890;2023-08-21T05:49:43;40.06;37.32;45.57;;
60031;Laerm;45901;47.600;9.890;2023-08-21T05:52:10;40.70;37.12;43.86;;
60031;Laerm;45901;47.600;9.890;2023-08-21T05:54:37;40.12;36.91;42.53;;
60031;Laerm;45901;47.600;9.890;2023-08-21T05:57:05;40.08;37.52;42.41;;
60031;Laerm;45901;47.600;9.890;2023-08-21T05:59:33;40.06;37.32;42.93;;
60031;Laerm;45901;47.600;9.890;2023-08-21T06:02:00;42.45;37.70;51.12;;
60031;Laerm;45901;47.600;9.890;2023-08-21T06:04:27;43.09;41.38;50.18;;
60031;Laerm;45901;47.600;9.890;2023-08-21T06:06:54;42.62;39.58;46.80;;
60031;Laerm;45901;47.600;9.890;2023-08-21T06:09:21;41.68;38.95;50.65;;
60031;Laerm;45901;47.600;9.890;2023-08-21T06:11:48;40.65;37.52;51.54;;
60031;Laerm;45901;47.600;9.890;2023-08-21T06:14:17;40.32;37.52;43.34;;
60031;Laerm;45901;47.600;9.890;2023-08-21T06:16:43;40.84;38.05;48.63;;
60031;Laerm;45901;47.600;9.890;2023-08-21T06:19:11;42.11;37.70;52.44;;
60031;Laerm;45901;47.600;9.890;2023-08-21T06:21:38;41.86;38.67;47.26;;
60031;Laerm;45901;47.600;9.890;2023-08-21T06:24:05;40.88;37.88;44.86;;
60031;Laerm;45901;47.600;9.890;2023-08-21T06:26:32;41.30;38.05;48.91;;
60031;Laerm;45901;47.600;9.890;2023-08-21T06:28:59;40.13;36.91;43.04;;
60031;Laerm;45901;47.600;9.890;2023-08-21T06:31:27;40.50;37.32;49.94;;
60031;Laerm;45901;47.600;9.890;2023-08-21T06:33:54;40.48;37.70;46.43;;
60031;Laerm;45901;47.600;9.890;2023-08-21T06:36:21;40.51;37.52;44.90;;
60031;Laerm;45901;47.600;9.890;2023-08-21T06:38:48;40.56;37.70;47.06;;
60031;Laerm;45901;47.600;9.890;2023-08-21T06:41:15;40.32;37.12;46.69;;
60031;Laerm;45901;47.600;9.890;2023-08-21T06:43:42;40.32;36.91;43.68;;
60031;Laerm;45901;47.600;9.890;2023-08-21T06:46:09;41.02;37.32;48.29;;
60031;Laerm;45901;47.600;9.890;2023-08-21T06:48:39;40.06;36.91;42.65;;
60031;Laerm;45901;47.600;9.890;2023-08-21T06:51:07;40.12;37.12;42.98;;
60031;Laerm;45901;47.600;9.890;2023-08-21T06:53:34;40.98;36.45;49.52;;
60031;Laerm;45901;47.600;9.890;2023-08-21T06:56:01;40.76;37.32;49.92;;
60031;Laerm;45901;47.600;9.890;2023-08-21T06:58:29;40.41;36.69;45.99;;
60031;Laerm;45901;47.600;9.890;2023-08-21T07:00:56;41.88;37.88;49.20;;
60031;Laerm;45901;47.600;9.890;2023-08-21T07:03:23;41.90;37.12;49.85;;
60031;Laerm;45901;47.600;9.890;2023-08-21T07:05:55;40.24;36.69;44.90;;
60031;Laerm;45901;47.600;9.890;2023-08-21T07:08:23;39.94;36.69;43.89;;
60031;Laerm;45901;47.600;9.890;2023-08-21T07:10:51;40.51;36.45;49.15;;
60031;Laerm;45901;47.600;9.890;2023-08-21T07:13:18;41.01;37.52;45.51;;
60031;Laerm;45901;47.600;9.890;2023-08-21T07:15:46;40.66;37.12;48.77;;
60031;Laerm;45901;47.600;9.890;2023-08-21T07:18:13;40.35;36.91;43.85;;
60031;Laerm;45901;47.600;9.890;2023-08-21T07:20:41;40.75;35.66;45.77;;
60031;Laerm;45901;47.600;9.890;2023-08-21T07:23:09;40.15;36.91;47.30;;
60031;Laerm;45901;47.600;9.890;2023-08-21T07:25:36;40.04;36.20;46.20;;
60031;Laerm;45901;47.600;9.890;2023-08-21T07:28:04;39.74;36.45;43.19;;
60031;Laerm;45901;47.600;9.890;2023-08-21T07:30:31;41.34;37.12;50.35;;
60031;Laerm;45901;47.600;9.890;2023-08-21T07:32:58;42.18;38.05;60.49;;
60031;Laerm;45901;47.600;9.890;2023-08-21T07:35:25;47.81;38.52;79.54;;
60031;Laerm;45901;47.600;9.890;2023-08-21T07:37:52;42.92;39.08;62.93;;
60031;Laerm;45901;47.600;9.890;2023-08-21T07:40:21;41.14;37.32;49.77;;
60031;Laerm;45901;47.600;9.890;2023-08-21T07:43:15;40.65;37.88;44.73;;
60031;Laerm;45901;47.600;9.890;2023-08-21T07:46:22;41.14;37.52;48.77;;
60031;Laerm;45901;47.600;9.890;2023-08-21T08:04:43;43.19;39.92;50.06;;
60031;Laerm;45901;47.600;9.890;2023-08-21T08:07:32;41.08;37.70;46.20;;
60031;Laerm;45901;47.600;9.890;2023-08-21T08:11:47;42.19;38.67;46.78;;
60031;Laerm;45901;47.600;9.890;2023-08-21T08:22:38;41.94;37.35;51.34;;
60031;Laerm;45901;47.600;9.890;2023-08-21T08:25:13;40.03;36.91;44.73;;
60031;Laerm;45901;47.600;9.890;2023-08-21T08:27:46;40.15;37.12;43.49;;
60031;Laerm;45901;47.600;9.890;2023-08-21T08:30:17;40.06;36.45;42.71;;
60031;Laerm;45901;47.600;9.890;2023-08-21T08:33:25;40.62;36.69;48.52;;
60031;Laerm;45901;47.600;9.890;2023-08-21T08:36:19;41.94;38.37;49.28;;
60031;Laerm;45901;47.600;9.890;2023-08-21T08:39:42;40.72;36.91;45.45;;
60031;Laerm;45901;47.600;9.890;2023-08-21T08:42:37;39.85;36.91;43.34;;
60031;Laerm;45901;47.600;9.890;2023-08-21T08:46:26;40.61;37.17;51.56;;
60031;Laerm;45901;47.600;9.890;2023-08-21T08:49:34;40.71;37.70;48.57;;
60031;Laerm;45901;47.600;9.890;2023-08-21T08:52:05;42.25;37.32;56.64;;
60031;Laerm;45901;47.600;9.890;2023-08-21T08:54:33;48.06;37.32;75.27;;
60031;Laerm;45901;47.600;9.890;2023-08-21T08:57:12;46.50;37.32;76.30;;
60031;Laerm;45901;47.600;9.890;2023-08-21T08:59:39;40.09;36.69;43.64;;
60031;Laerm;45901;47.600;9.890;2023-08-21T09:02:06;42.19;36.91;51.36;;
60031;Laerm;45901;47.600;9.890;2023-08-21T09:04:33;40.75;36.69;47.21;;
60031;Laerm;45901;47.600;9.890;2023-08-21T09:07:06;41.85;36.69;58.51;;
60031;Laerm;45901;47.600;9.890;2023-08-21T09:09:38;40.62;36.91;54.94;;
60031;Laerm;45901;47.600;9.890;2023-08-21T09:12:10;40.37;37.12;45.75;;
60031;Laerm;45901;47.600;9.890;2023-08-21T09:14:39;41.73;37.12;47.04;;
60031;Laerm;45901;47.600;9.890;2023-08-21T09:17:06;40.50;37.12;52.71;;
60031;Laerm;45901;47.600;9.890;2023-08-21T09:19:34;40.02;36.91;54.04;;
60031;Laerm;45901;47.600;9.890;2023-08-21T09:22:09;40.89;36.91;44.23;;
60031;Laerm;45901;47.600;9.890;2023-08-21T09:24:36;40.33;37.12;44.58;;
60031;Laerm;45901;47.600;9.890;2023-08-21T09:27:04;40.06;36.91;44.11;;
60031;Laerm;45901;47.600;9.890;2023-08-21T09:29:40;40.56;36.91;47.38;;
60031;Laerm;45901;47.600;9.890;2023-08-21T09:32:07;40.64;36.98;50.05;;
60031;Laerm;45901;47.600;9.890;2023-08-21T09:34:35;40.05;37.12;44.19;;
60031;Laerm;45901;47.600;9.890;2023-08-21T09:37:06;40.55;36.69;50.64;;
60031;Laerm;45901;47.600;9.890;2023-08-21T09:39:35;42.02;37.32;49.71;;
60031;Laerm;45901;47.600;9.890;2023-08-21T09:42:06;41.68;37.88;48.80;;
60031;Laerm;45901;47.600;9.890;2023-08-21T09:44:38;44.72;41.30;53.27;;
60031;Laerm;45901;47.600;9.890;2023-08-21T09:47:10;43.20;37.88;55.51;;
60031;Laerm;45901;47.600;9.890;2023-08-21T09:49:37;40.61;37.12;43.99;;
60031;Laerm;45901;47.600;9.890;2023-08-21T09:52:06;40.50;37.52;46.89;;
60031;Laerm;45901;47.600;9.890;2023-08-21T09:54:34;41.68;38.05;47.04;;
60031;Laerm;45901;47.600;9.890;2023-08-21T09:57:03;40.88;37.70;48.42;;
60031;Laerm;45901;47.600;9.890;2023-08-21T09:59:31;42.55;38.21;56.43;;
60031;Laerm;45901;47.600;9.890;2023-08-21T10:01:59;43.84;40.23;61.89;;
60031;Laerm;45901;47.600;9.890;2023-08-21T10:04:30;43.04;39.21;53.29;;
60031;Laerm;45901;47.600;9.890;2023-08-21T10:06:58;42.67;37.70;49.56;;
60031;Laerm;45901;47.600;9.890;2023-08-21T10:09:29;41.66;38.37;49.97;;
60031;Laerm;45901;47.600;9.890;2023-08-21T10:11:58;40.98;37.88;45.54;;
60031;Laerm;45901;47.600;9.890;2023-08-21T10:14:25;40.89;38.05;45.20;;
60031;Laerm;45901;47.600;9.890;2023-08-21T10:16:53;40.72;37.52;48.69;;
60031;Laerm;45901;47.600;9.890;2023-08-21T10:19:21;40.60;37.52;47.98;;
60031;Laerm;45901;47.600;9.890;2023-08-21T10:21:49;41.28;37.70;46.91;;
60031;Laerm;45901;47.600;9.890;2023-08-21T10:24:34;41.63;38.05;49.79;;
60031;Laerm;45901;47.600;9.890;2023-08-21T10:27:02;42.38;37.32;47.74;;
60031;Laerm;45901;47.600;9.890;2023-08-21T10:29:29;44.89;37.52;69.92;;
60031;Laerm;45901;47.600;9.890;2023-08-21T10:32:01;42.12;38.05;50.92;;
60031;Laerm;45901;47.600;9.890;2023-08-21T10:34:34;42.62;38.81;49.71;;
60031;Laerm;45901;47.600;9.890;2023-08-21T10:37:08;42.45;38.74;47.26;;
60031;Laerm;45901;47.600;9.890;2023-08-21T10:39:38;43.58;39.92;51.77;;
60031;Laerm;45901;47.600;9.890;2023-08-21T10:42:08;43.69;38.67;54.58;;
60031;Laerm;45901;47.600;9.890;2023-08-21T10:44:52;41.03;37.32;49.23;;
60031;Laerm;45901;47.600;9.890;2023-08-21T10:47:23;41.40;38.05;52.95;;
60031;Laerm;45901;47.600;9.890;2023-08-21T10:50:00;40.53;37.12;48.94;;
60031;Laerm;45901;47.600;9.890;2023-08-21T10:52:31;41.37;37.88;49.88;;
60031;Laerm;45901;47.600;9.890;2023-08-21T10:55:00;40.84;36.20;50.77;;
60031;Laerm;45901;47.600;9.890;2023-08-21T10:57:31;39.74;36.91;44.38;;
60031;Laerm;45901;47.600;9.890;2023-08-21T11:00:00;40.40;36.91;49.57;;
60031;Laerm;45901;47.600;9.890;2023-08-21T11:02:31;40.41;37.12;51.83;;
60031;Laerm;45901;47.600;9.890;2023-08-21T11:05:00;40.07;36.91;44.90;;
60031;Laerm;45901;47.600;9.890;2023-08-21T11:07:30;40.02;36.45;52.43;;
60031;Laerm;45901;47.600;9.890;2023-08-21T11:09:57;41.28;36.91;47.88;;
60031;Laerm;45901;47.600;9.890;2023-08-21T11:12:25;41.24;36.20;47.96;;
60031;Laerm;45901;47.600;9.890;2023-08-21T11:14:52;40.29;37.32;47.48;;
60031;Laerm;45901;47.600;9.890;2023-08-21T11:17:20;41.26;37.35;49.91;;
60031;Laerm;45901;47.600;9.890;2023-08-21T11:19:48;40.37;36.91;53.19;;
60031;Laerm;45901;47.600;9.890;2023-08-21T11:22:17;41.43;36.69;55.37;;
60031;Laerm;45901;47.600;9.890;2023-08-21T11:24:48;40.34;36.20;49.90;;
60031;Laerm;45901;47.600;9.890;2023-08-21T11:27:18;39.93;36.20;44.65;;
60031;Laerm;45901;47.600;9.890;2023-08-21T11:29:47;40.90;37.32;50.29;;
60031;Laerm;45901;47.600;9.890;2023-08-21T11:32:16;40.87;37.70;51.20;;
60031;Laerm;45901;47.600;9.890;2023-08-21T11:34:48;40.42;37.12;57.95;;
60031;Laerm;45901;47.600;9.890;2023-08-21T11:37:17;41.66;37.12;51.14;;
60031;Laerm;45901;47.600;9.890;2023-08-21T11:39:49;41.01;37.70;47.42;;
60031;Laerm;45901;47.600;9.890;2023-08-21T11:42:19;41.01;37.52;51.57;;
60031;Laerm;45901;47.600;9.890;2023-08-21T11:44:47;40.40;37.32;51.40;;
60031;Laerm;45901;47.600;9.890;2023-08-21T11:47:16;40.67;36.45;51.20;;
60031;Laerm;45901;47.600;9.890;2023-08-21T11:49:45;40.06;36.69;44.65;;
60031;Laerm;45901;47.600;9.890;2023-08-21T11:52:13;41.56;37.52;49.25;;
60031;Laerm;45901;47.600;9.890;2023-08-21T11:54:41;42.11;38.21;49.82;;
60031;Laerm;45901;47.600;9.890;2023-08-21T11:57:13;40.88;37.52;47.24;;
60031;Laerm;45901;47.600;9.890;2023-08-21T11:59:41;41.17;37.70;45.17;;
60031;Laerm;45901;47.600;9.890;2023-08-21T12:02:12;40.83;37.52;52.86;;
60031;Laerm;45901;47.600;9.890;2023-08-21T12:04:40;40.28;37.52;51.53;;
60031;Laerm;45901;47.600;9.890;2023-08-21T12:07:07;40.50;37.12;45.63;;
60031;Laerm;45901;47.600;9.890;2023-08-21T12:09:34;40.51;37.52;47.93;;
60031;Laerm;45901;47.600;9.890;2023-08-21T12:12:02;40.45;37.70;45.77;;
60031;Laerm;45901;47.600;9.890;2023-08-21T12:14:30;44.57;38.05;50.62;;
60031;Laerm;45901;47.600;9.890;2023-08-21T12:16:57;44.23;41.11;50.68;;
60031;Laerm;45901;47.600;9.890;2023-08-21T12:19:24;42.53;38.05;50.54;;
60031;Laerm;45901;47.600;9.890;2023-08-21T12:21:51;40.58;37.32;46.89;;
60031;Laerm;45901;47.600;9.890;2023-08-21T12:24:18;43.63;38.60;53.23;;
60031;Laerm;45901;47.600;9.890;2023-08-21T12:26:46;42.76;37.88;52.69;;
60031;Laerm;45901;47.600;9.890;2023-08-21T12:29:13;40.86;37.70;48.05;;
60031;Laerm;45901;47.600;9.890;2023-08-21T12:31:41;41.30;37.88;49.97;;
60031;Laerm;45901;47.600;9.890;2023-08-21T12:34:08;40.51;37.88;44.35;;
60031;Laerm;45901;47.600;9.890;2023-08-21T12:36:35;40.28;36.91;45.48;;
60031;Laerm;45901;47.600;9.890;2023-08-21T12:39:03;40.40;37.32;43.09;;
60031;Laerm;45901;47.600;9.890;2023-08-21T12:41:31;40.12;37.70;48.80;;
60031;Laerm;45901;47.600;9.890;2023-08-21T12:43:58;39.61;36.91;43.94;;
60031;Laerm;45901;47.600;9.890;2023-08-21T12:46:25;41.04;36.91;52.03;;
60031;Laerm;45901;47.600;9.890;2023-08-21T12:48:54;40.58;37.52;45.01;;
60031;Laerm;45901;47.600;9.890;2023-08-21T12:51:22;39.90;37.32;42.82;;
60031;Laerm;45901;47.600;9.890;2023-08-21T12:53:49;40.17;37.12;45.11;;
60031;Laerm;45901;47.600;9.890;2023-08-21T12:56:17;40.53;37.12;49.36;;
60031;Laerm;45901;47.600;9.890;2023-08-21T12:58:45;39.79;37.32;42.82;;
60031;Laerm;45901;47.600;9.890;2023-08-21T13:01:12;40.68;37.12;51.77;;
60031;Laerm;45901;47.600;9.890;2023-08-21T13:03:44;40.57;37.52;50.66;;
60031;Laerm;45901;47.600;9.890;2023-08-21T13:06:30;40.01;37.12;44.11;;
60031;Laerm;45901;47.600;9.890;2023-08-21T13:12:50;42.12;38.52;51.30;;
60031;Laerm;45901;47.600;9.890;2023-08-21T13:15:21;40.35;37.52;49.04;;
60031;Laerm;45901;47.600;9.890;2023-08-21T13:22:21;40.03;37.12;44.58;;
60031;Laerm;45901;47.600;9.890;2023-08-21T13:25:02;40.58;37.52;54.57;;
60031;Laerm;45901;47.600;9.890;2023-08-21T13:27:29;40.65;37.53;45.39;;
60031;Laerm;45901;47.600;9.890;2023-08-21T13:29:56;40.66;37.70;47.28;;
60031;Laerm;45901;47.600;9.890;2023-08-21T13:32:23;40.71;37.32;51.01;;
60031;Laerm;45901;47.600;9.890;2023-08-21T13:34:50;40.57;37.52;47.70;;
60031;Laerm;45901;47.600;9.890;2023-08-21T13:37:17;40.40;37.52;47.36;;
60031;Laerm;45901;47.600;9.890;2023-08-21T13:39:46;40.17;37.12;45.27;;
60031;Laerm;45901;47.600;9.890;2023-08-21T13:43:09;40.12;37.52;43.04;;
60031;Laerm;45901;47.600;9.890;2023-08-21T13:46:05;40.57;37.70;50.31;;
60031;Laerm;45901;47.600;9.890;2023-08-21T13:49:06;40.12;37.12;45.86;;
60031;Laerm;45901;47.600;9.890;2023-08-21T13:51:48;40.23;37.52;49.90;;
60031;Laerm;45901;47.600;9.890;2023-08-21T13:54:25;40.60;36.91;52.36;;
60031;Laerm;45901;47.600;9.890;2023-08-21T13:57:17;40.21;37.70;44.62;;
60031;Laerm;45901;47.600;9.890;2023-08-21T14:00:04;40.03;37.32;44.69;;
60031;Laerm;45901;47.600;9.890;2023-08-21T14:03:46;41.61;36.91;52.13;;
60031;Laerm;45901;47.600;9.890;2023-08-21T14:06:12;41.05;37.88;49.94;;
60031;Laerm;45901;47.600;9.890;2023-08-21T14:08:39;40.48;37.70;46.87;;
60031;Laerm;45901;47.600;9.890;2023-08-21T14:11:06;40.55;37.32;45.72;;
60031;Laerm;45901;47.600;9.890;2023-08-21T14:13:35;40.49;37.52;47.59;;
60031;Laerm;45901;47.600;9.890;2023-08-21T14:16:02;40.53;37.32;49.83;;
60031;Laerm;45901;47.600;9.890;2023-08-21T14:18:30;41.33;38.05;45.30;;
60031;Laerm;45901;47.600;9.890;2023-08-21T14:20:57;40.24;37.88;44.03;;
60031;Laerm;45901;47.600;9.890;2023-08-21T14:23:24;40.65;37.52;52.34;;
60031;Laerm;45901;47.600;9.890;2023-08-21T14:25:51;40.41;37.12;43.04;;
60031;Laerm;45901;47.600;9.890;2023-08-21T14:28:24;40.39;37.12;55.32;;
60031;Laerm;45901;47.600;9.890;2023-08-21T14:56:02;40.00;37.12;45.91;;
60031;Laerm;45901;47.600;9.890;2023-08-21T14:58:41;40.31;37.70;46.05;;
60031;Laerm;45901;47.600;9.890;2023-08-21T15:01:26;41.32;37.32;52.04;;